createdAt,value
2019-02-26T00:00:44.922Z,31.10
2019-02-26T00:03:10.570Z,33.18
2019-02-26T00:05:39.295Z,30.40
2019-02-26T00:08:08.090Z,32.88
2019-02-26T00:10:39.021Z,38.45
2019-02-26T00:13:07.325Z,34.75
2019-02-26T00:15:38.118Z,31.48
2019-02-26T00:18:09.451Z,35.20
2019-02-26T00:20:39.203Z,29.20
2019-02-26T00:23:07.776Z,35.75
2019-02-26T00:25:36.524Z,34.08
2019-02-26T00:28:05.237Z,37.90
2019-02-26T00:30:36.048Z,34.45
2019-02-26T00:33:05.279Z,36.83
2019-02-26T00:35:34.170Z,32.38
2019-02-26T00:38:03.098Z,32.50
2019-02-26T00:40:32.698Z,38.42
2019-02-26T00:43:04.317Z,27.15
2019-02-26T00:45:34.032Z,33.10
2019-02-26T00:48:03.456Z,32.63
2019-02-26T00:50:33.158Z,35.88
2019-02-26T00:53:03.979Z,33.55
2019-02-26T00:55:34.734Z,36.73
2019-02-26T00:58:05.672Z,30.37
2019-02-26T01:00:35.473Z,32.35
2019-02-26T01:03:05.955Z,32.42
2019-02-26T01:05:36.343Z,30.82
2019-02-26T01:08:06.471Z,33.02
2019-02-26T01:10:37.518Z,34.43
2019-02-26T01:13:07.307Z,30.75
2019-02-26T01:15:36.265Z,36.42
2019-02-26T01:18:05.576Z,28.23
2019-02-26T01:20:34.655Z,35.38
2019-02-26T01:23:03.386Z,29.63
2019-02-26T01:25:32.071Z,33.15
2019-02-26T01:28:00.945Z,31.35
2019-02-26T01:30:33.155Z,31.02
2019-02-26T01:33:02.500Z,29.82
2019-02-26T01:35:32.983Z,31.15
2019-02-26T01:38:01.462Z,34.35
2019-02-26T01:40:30.341Z,30.72
2019-02-26T01:43:02.591Z,30.65
2019-02-26T01:45:31.798Z,32.50
2019-02-26T01:48:00.133Z,29.80
2019-02-26T01:50:30.856Z,37.42
2019-02-26T01:53:01.086Z,34.10
2019-02-26T01:55:30.065Z,31.70
2019-02-26T01:57:59.240Z,33.35
2019-02-26T02:00:28.190Z,35.28
2019-02-26T02:02:56.891Z,31.75
2019-02-26T02:05:28.175Z,36.53
2019-02-26T02:07:56.143Z,30.75
2019-02-26T02:10:25.124Z,33.80
2019-02-26T02:12:57.342Z,33.20
2019-02-26T02:15:24.322Z,32.95
2019-02-26T02:17:54.880Z,35.33
2019-02-26T02:20:23.803Z,29.77
2019-02-26T02:22:52.599Z,35.17
2019-02-26T02:25:21.616Z,28.83
2019-02-26T02:27:54.141Z,29.00
2019-02-26T02:30:26.645Z,35.20
2019-02-26T02:32:54.362Z,36.08
2019-02-26T02:35:21.697Z,36.53
2019-02-26T02:37:51.445Z,29.75
2019-02-26T02:40:21.018Z,29.48
2019-02-26T02:42:49.746Z,28.17
2019-02-26T02:45:20.946Z,28.05
2019-02-26T02:47:54.848Z,31.52
2019-02-26T02:50:19.435Z,32.70
2019-02-26T02:52:50.557Z,32.45
2019-02-26T02:55:19.277Z,29.00
2019-02-26T02:57:51.883Z,38.70
2019-02-26T03:00:20.632Z,29.63
2019-02-26T03:02:50.038Z,31.65
2019-02-26T03:05:19.649Z,31.45
2019-02-26T03:07:51.012Z,30.02
2019-02-26T03:10:18.828Z,29.37
2019-02-26T03:12:51.477Z,28.57
2019-02-26T03:15:18.025Z,30.55
2019-02-26T03:17:46.789Z,33.35
2019-02-26T03:20:15.501Z,33.92
2019-02-26T03:22:48.777Z,28.25
2019-02-26T03:25:17.385Z,35.03
2019-02-26T03:27:45.228Z,33.25
2019-02-26T03:30:26.423Z,31.15
2019-02-26T03:32:55.950Z,26.85
2019-02-26T03:35:22.256Z,29.92
2019-02-26T03:37:51.698Z,27.87
2019-02-26T03:40:20.949Z,30.43
2019-02-26T03:42:50.384Z,37.17
2019-02-26T03:45:23.824Z,38.50
2019-02-26T03:47:49.510Z,28.12
2019-02-26T03:50:18.295Z,30.72
2019-02-26T03:52:47.135Z,29.37
2019-02-26T03:55:18.818Z,28.95
2019-02-26T03:57:47.565Z,29.82
2019-02-26T04:00:17.479Z,31.55
2019-02-26T04:02:50.521Z,28.65
2019-02-26T04:05:17.648Z,28.87
2019-02-26T04:07:51.690Z,34.15
2019-02-26T04:10:16.903Z,27.55
2019-02-26T04:12:48.641Z,30.23
2019-02-26T04:15:16.224Z,30.45
2019-02-26T04:17:44.995Z,30.27
2019-02-26T04:20:13.739Z,31.65
2019-02-26T04:22:46.063Z,31.30
2019-02-26T04:25:22.116Z,34.65
2019-02-26T04:28:18.449Z,28.87
2019-02-26T04:31:22.021Z,29.65
2019-02-26T04:34:15.492Z,28.07
2019-02-26T04:37:38.489Z,27.60
2019-02-26T04:41:00.402Z,30.62
2019-02-26T04:44:08.636Z,31.05
2019-02-26T04:46:54.918Z,31.60
2019-02-26T04:49:27.078Z,28.20
2019-02-26T04:51:54.699Z,29.02
2019-02-26T04:54:26.350Z,35.70
2019-02-26T04:56:53.933Z,30.60
2019-02-26T04:59:22.657Z,30.77
2019-02-26T05:01:52.314Z,29.75
2019-02-26T05:04:22.177Z,27.42
2019-02-26T05:06:50.979Z,26.48
2019-02-26T05:09:19.770Z,36.83
2019-02-26T05:11:48.529Z,29.70
2019-02-26T05:14:23.019Z,31.57
2019-02-26T05:16:47.688Z,29.12
2019-02-26T05:19:18.617Z,26.82
2019-02-26T05:21:46.919Z,31.77
2019-02-26T05:24:18.002Z,29.18
2019-02-26T05:26:46.317Z,32.53
2019-02-26T05:29:15.032Z,26.75
2019-02-26T05:31:43.783Z,31.75
2019-02-26T05:34:15.159Z,28.40
2019-02-26T05:36:46.028Z,27.93
2019-02-26T05:39:14.567Z,41.68
2019-02-26T05:41:44.063Z,30.37
2019-02-26T05:44:12.807Z,38.65
2019-02-26T05:46:41.518Z,30.35
2019-02-26T05:49:13.526Z,26.62
2019-02-26T05:51:40.701Z,32.20
2019-02-26T05:54:12.259Z,30.27
2019-02-26T05:56:41.304Z,30.53
2019-02-26T05:59:13.315Z,32.63
2019-02-26T06:01:40.767Z,27.05
2019-02-26T06:04:11.878Z,32.78
2019-02-26T06:06:40.040Z,30.45
2019-02-26T06:09:08.799Z,32.28
2019-02-26T06:11:39.963Z,28.75
2019-02-26T06:14:12.098Z,31.85
2019-02-26T06:16:38.721Z,32.10
2019-02-26T06:19:10.984Z,34.18
2019-02-26T06:21:43.995Z,34.65
2019-02-26T06:24:10.437Z,36.10
2019-02-26T06:26:41.204Z,32.15
2019-02-26T06:29:09.731Z,30.55
2019-02-26T06:31:41.713Z,35.98
2019-02-26T06:34:11.297Z,36.15
2019-02-26T06:36:39.514Z,36.28
2019-02-26T06:39:08.223Z,37.33
2019-02-26T06:41:39.532Z,100.38
2019-02-26T06:44:07.517Z,248.38
2019-02-26T06:46:38.324Z,86.75
2019-02-26T06:49:06.670Z,55.63
2019-02-26T06:51:35.443Z,50.12
2019-02-26T06:54:04.143Z,67.85
2019-02-26T06:56:37.039Z,78.75
2019-02-26T06:59:09.871Z,53.08
2019-02-26T07:01:40.103Z,46.13
2019-02-26T07:04:12.920Z,42.03
2019-02-26T07:06:40.394Z,42.93
2019-02-26T07:09:10.837Z,46.20
2019-02-26T07:11:39.563Z,52.15
2019-02-26T07:14:10.224Z,51.50
2019-02-26T07:16:40.364Z,54.45
2019-02-26T07:19:11.548Z,50.73
2019-02-26T07:21:40.603Z,53.50
2019-02-26T07:24:10.249Z,66.57
2019-02-26T07:26:41.172Z,42.93
2019-02-26T07:29:12.232Z,37.42
2019-02-26T07:31:40.080Z,40.60
2019-02-26T07:34:08.814Z,49.03
2019-02-26T07:36:37.567Z,57.35
2019-02-26T07:39:07.912Z,42.55
2019-02-26T07:41:36.631Z,42.43
2019-02-26T07:44:08.746Z,36.70
2019-02-26T07:46:37.978Z,36.00
2019-02-26T07:49:07.429Z,39.18
2019-02-26T07:51:38.176Z,43.38
2019-02-26T07:54:07.172Z,37.58
2019-02-26T07:56:36.001Z,36.53
2019-02-26T07:59:07.330Z,34.40
2019-02-26T08:01:35.432Z,40.00
2019-02-26T08:04:06.225Z,36.70
2019-02-26T08:06:36.259Z,32.55
2019-02-26T08:09:11.481Z,33.83
2019-02-26T08:11:39.163Z,32.42
2019-02-26T08:14:08.381Z,36.13
2019-02-26T08:16:37.111Z,36.58
2019-02-26T08:19:05.853Z,37.15
2019-02-26T08:21:34.614Z,30.00
2019-02-26T08:24:03.329Z,37.15
2019-02-26T08:26:32.080Z,40.92
2019-02-26T08:29:02.601Z,36.98
2019-02-26T08:31:31.361Z,36.73
2019-02-26T08:34:00.195Z,33.83
2019-02-26T08:39:57.743Z,32.38
2019-02-26T08:43:24.708Z,34.63
2019-02-26T08:46:14.170Z,36.23
2019-02-26T08:49:08.326Z,36.15
2019-02-26T08:51:52.465Z,42.70
2019-02-26T08:54:40.436Z,34.40
2019-02-26T08:57:28.467Z,36.68
2019-02-26T09:00:16.842Z,39.63
2019-02-26T09:03:04.902Z,34.23
2019-02-26T09:05:53.921Z,36.35
2019-02-26T09:08:23.389Z,40.08
2019-02-26T09:10:52.119Z,44.98
2019-02-26T09:13:20.991Z,44.50
2019-02-26T09:15:49.741Z,39.50
2019-02-26T09:18:20.415Z,35.80
2019-02-26T09:20:49.022Z,38.38
2019-02-26T09:23:20.862Z,30.68
2019-02-26T09:25:51.447Z,46.13
2019-02-26T09:28:20.157Z,33.73
2019-02-26T09:30:49.059Z,36.28
2019-02-26T09:33:17.815Z,39.92
2019-02-26T09:35:47.383Z,34.08
2019-02-26T09:38:17.666Z,38.60
2019-02-26T09:40:49.535Z,38.15
2019-02-26T09:43:19.670Z,41.18
2019-02-26T09:45:50.500Z,34.75
2019-02-26T09:48:19.425Z,31.82
2019-02-26T09:50:49.425Z,35.17
2019-02-26T09:53:18.227Z,32.28
2019-02-26T09:55:46.971Z,38.30
2019-02-26T09:58:17.682Z,26.85
2019-02-26T10:00:48.117Z,33.60
2019-02-26T10:03:16.590Z,28.77
2019-02-26T10:05:47.628Z,33.08
2019-02-26T10:08:17.362Z,29.37
2019-02-26T10:10:46.632Z,24.52
2019-02-26T10:13:15.893Z,26.25
2019-02-26T10:15:45.248Z,26.40
2019-02-26T10:18:14.031Z,36.00
2019-02-26T10:20:45.051Z,26.48
2019-02-26T10:23:13.197Z,30.62
2019-02-26T10:25:42.095Z,25.60
2019-02-26T10:28:11.577Z,27.82
2019-02-26T10:30:41.817Z,30.32
2019-02-26T10:33:10.674Z,27.82
2019-02-26T10:35:41.976Z,28.15
2019-02-26T10:38:11.494Z,26.10
2019-02-26T10:40:50.777Z,35.30
2019-02-26T10:43:11.062Z,25.00
2019-02-26T10:45:42.433Z,29.32
2019-02-26T10:48:10.423Z,33.92
2019-02-26T10:50:41.942Z,25.05
2019-02-26T10:53:13.144Z,25.15
2019-02-26T10:55:41.872Z,23.55
2019-02-26T10:58:13.116Z,22.90
2019-02-26T11:00:41.572Z,26.57
2019-02-26T11:03:12.800Z,22.17
2019-02-26T11:05:42.678Z,28.47
2019-02-26T11:08:11.319Z,29.67
2019-02-26T11:10:43.905Z,26.20
2019-02-26T11:13:12.990Z,23.52
2019-02-26T11:15:41.025Z,25.85
2019-02-26T11:18:11.806Z,23.87
2019-02-26T11:20:40.289Z,25.05
2019-02-26T11:23:11.217Z,25.00
2019-02-26T11:25:39.495Z,28.70
2019-02-26T11:28:10.511Z,25.55
2019-02-26T11:30:38.792Z,28.23
2019-02-26T11:33:10.098Z,28.90
2019-02-26T11:35:39.690Z,24.70
2019-02-26T11:38:09.344Z,26.05
2019-02-26T11:40:39.106Z,23.75
2019-02-26T11:43:11.624Z,28.95
2019-02-26T11:45:40.012Z,25.70
2019-02-26T11:48:09.004Z,26.75
2019-02-26T11:50:37.738Z,25.50
2019-02-26T11:53:09.298Z,26.20
2019-02-26T11:55:37.558Z,27.80
2019-02-26T11:58:10.032Z,28.27
2019-02-26T12:00:45.517Z,26.95
2019-02-26T12:03:14.881Z,24.65
2019-02-26T12:05:43.618Z,26.30
2019-02-26T12:08:16.360Z,26.97
2019-02-26T12:10:42.900Z,28.10
2019-02-26T12:13:11.715Z,25.02
2019-02-26T12:15:42.694Z,31.80
2019-02-26T12:18:13.044Z,21.35
2019-02-26T12:20:43.461Z,22.75
2019-02-26T12:23:15.622Z,24.60
2019-02-26T12:25:42.523Z,23.40
2019-02-26T12:28:13.620Z,23.10
2019-02-26T12:30:43.906Z,26.12
2019-02-26T12:33:14.322Z,25.23
2019-02-26T12:35:43.638Z,26.77
2019-02-26T12:38:20.731Z,24.27
2019-02-26T12:40:44.718Z,23.98
2019-02-26T12:43:16.358Z,26.02
2019-02-26T12:45:44.161Z,25.15
2019-02-26T12:50:43.771Z,21.40
2019-02-26T12:53:15.208Z,22.10
2019-02-26T12:55:43.053Z,20.48
2019-02-26T12:58:14.576Z,24.52
2019-02-26T13:00:42.433Z,18.98
2019-02-26T13:03:12.609Z,20.97
2019-02-26T13:05:44.910Z,20.70
2019-02-26T13:08:16.270Z,24.85
2019-02-26T13:10:46.545Z,21.52
2019-02-26T13:13:13.288Z,21.45
2019-02-26T13:15:42.203Z,19.15
2019-02-26T13:18:11.020Z,22.10
2019-02-26T13:26:22.549Z,27.32
2019-02-26T13:28:53.025Z,20.35
2019-02-26T13:31:22.402Z,31.12
2019-02-26T13:33:51.333Z,24.75
2019-02-26T13:36:20.170Z,25.40
2019-02-26T13:38:49.308Z,19.87
2019-02-26T13:41:29.376Z,20.05
2019-02-26T13:43:48.719Z,19.55
2019-02-26T13:46:18.068Z,23.87
2019-02-26T13:48:46.900Z,24.80
2019-02-26T13:51:15.791Z,23.77
2019-02-26T13:53:44.614Z,24.18
2019-02-26T13:56:13.514Z,20.10
2019-02-26T13:58:42.429Z,21.48
2019-02-26T14:01:11.221Z,26.45
2019-02-26T14:03:40.135Z,19.85
2019-02-26T14:06:09.014Z,23.92
2019-02-26T14:08:37.866Z,30.65
2019-02-26T14:11:07.063Z,22.77
2019-02-26T14:13:36.040Z,26.52
2019-02-26T14:16:04.934Z,23.87
2019-02-26T14:18:33.697Z,24.15
2019-02-26T14:21:02.444Z,19.73
2019-02-26T14:23:35.003Z,23.18
2019-02-26T14:26:02.413Z,24.47
2019-02-26T14:28:31.151Z,27.05
2019-02-26T14:30:59.935Z,25.08
2019-02-26T14:33:28.671Z,23.38
2019-02-26T14:35:57.443Z,22.98
2019-02-26T14:38:26.209Z,25.15
2019-02-26T14:40:55.001Z,24.37
2019-02-26T14:43:23.838Z,25.55
2019-02-26T14:45:52.658Z,23.47
2019-02-26T14:48:21.390Z,21.05
2019-02-26T14:50:50.214Z,27.62
2019-02-26T14:53:19.077Z,24.55
2019-02-26T14:55:47.851Z,20.12
2019-02-26T14:58:16.979Z,25.10
2019-02-26T15:00:45.879Z,25.90
2019-02-26T15:03:14.603Z,24.70
2019-02-26T15:05:43.497Z,23.45
2019-02-26T15:08:12.371Z,28.95
2019-02-26T15:10:44.579Z,25.25
2019-02-26T15:13:13.298Z,26.45
2019-02-26T15:15:42.454Z,24.18
2019-02-26T15:18:11.271Z,37.13
2019-02-26T15:20:40.146Z,23.32
2019-02-26T15:23:08.875Z,25.60
2019-02-26T15:25:37.638Z,20.50
2019-02-26T15:28:06.500Z,23.67
2019-02-26T15:30:35.337Z,20.77
2019-02-26T15:33:10.850Z,25.65
2019-02-26T15:35:34.622Z,26.10
2019-02-26T15:38:03.451Z,23.65
2019-02-26T15:40:32.244Z,23.67
2019-02-26T15:43:01.066Z,20.57
2019-02-26T15:45:29.835Z,22.22
2019-02-26T15:48:03.717Z,21.20
2019-02-26T15:50:30.247Z,23.57
2019-02-26T15:52:58.989Z,24.27
2019-02-26T15:55:28.696Z,23.47
2019-02-26T15:58:03.144Z,23.55
2019-02-26T16:00:28.619Z,22.80
2019-02-26T16:02:59.377Z,26.68
2019-02-26T16:05:28.020Z,22.70
2019-02-26T16:07:56.779Z,22.27
2019-02-26T16:10:25.519Z,23.18
2019-02-26T16:12:54.509Z,22.62
2019-02-26T16:15:23.381Z,21.12
2019-02-26T16:17:52.071Z,25.05
2019-02-26T16:20:20.835Z,21.48
2019-02-26T16:22:49.685Z,25.05
2019-02-26T16:25:18.571Z,22.50
2019-02-26T16:27:47.280Z,23.35
2019-02-26T16:30:18.103Z,23.10
2019-02-26T16:32:48.856Z,22.98
2019-02-26T16:35:17.514Z,20.50
2019-02-26T16:37:46.442Z,21.00
2019-02-26T16:40:15.176Z,24.32
2019-02-26T16:42:44.534Z,20.88
2019-02-26T16:45:15.887Z,24.20
2019-02-26T16:47:46.052Z,36.08
2019-02-26T16:50:16.768Z,22.22
2019-02-26T16:52:45.495Z,24.32
2019-02-26T16:55:17.081Z,29.30
2019-02-26T16:57:45.058Z,23.50
2019-02-26T17:00:16.386Z,23.65
2019-02-26T17:02:45.190Z,26.60
2019-02-26T17:05:15.060Z,24.77
2019-02-26T17:07:44.236Z,27.70
2019-02-26T17:10:14.862Z,29.02
2019-02-26T17:12:45.403Z,26.55
2019-02-26T17:15:17.544Z,29.77
2019-02-26T17:17:46.373Z,24.65
2019-02-26T17:20:15.164Z,26.97
2019-02-26T17:22:44.996Z,25.90
2019-02-26T17:25:13.923Z,30.90
2019-02-26T17:27:42.887Z,25.77
2019-02-26T17:30:12.111Z,28.83
2019-02-26T17:32:40.876Z,25.55
2019-02-26T17:35:12.626Z,26.17
2019-02-26T17:37:42.112Z,34.78
2019-02-26T17:40:11.899Z,27.45
2019-02-26T17:42:40.659Z,31.35
2019-02-26T17:45:11.739Z,29.12
2019-02-26T17:47:40.650Z,62.30
2019-02-26T17:50:12.593Z,147.13
2019-02-26T17:52:41.375Z,116.88
2019-02-26T17:55:10.169Z,139.15
2019-02-26T17:57:39.307Z,32.90
2019-02-26T18:00:10.559Z,31.05
2019-02-26T18:02:39.399Z,32.73
2019-02-26T18:05:08.173Z,28.70
2019-02-26T18:07:38.569Z,29.75
2019-02-26T18:10:12.522Z,27.95
2019-02-26T18:12:42.620Z,34.33
2019-02-26T18:15:11.125Z,35.40
2019-02-26T18:17:40.101Z,32.00
2019-02-26T18:20:11.417Z,35.03
2019-02-26T18:22:40.202Z,32.53
2019-02-26T18:25:10.323Z,31.55
2019-02-26T18:27:39.241Z,35.40
2019-02-26T18:30:10.688Z,32.73
2019-02-26T18:32:39.550Z,31.02
2019-02-26T18:35:08.158Z,29.05
2019-02-26T18:37:36.876Z,30.82
2019-02-26T18:40:07.525Z,42.03
2019-02-26T18:42:38.765Z,35.85
2019-02-26T18:45:10.546Z,40.38
2019-02-26T18:47:42.248Z,34.60
2019-02-26T18:50:10.518Z,35.58
2019-02-26T18:52:41.544Z,38.13
2019-02-26T18:55:12.763Z,30.15
2019-02-26T18:57:43.661Z,29.87
2019-02-26T19:00:14.664Z,38.92
2019-02-26T19:02:43.507Z,46.45
2019-02-26T19:05:12.685Z,53.73
2019-02-26T19:07:41.531Z,29.05
2019-02-26T19:10:12.062Z,35.13
2019-02-26T19:12:40.923Z,55.28
2019-02-26T19:15:12.631Z,51.37
2019-02-26T19:17:43.646Z,36.35
2019-02-26T19:20:14.919Z,36.77
2019-02-26T19:22:43.644Z,35.40
2019-02-26T19:25:12.651Z,46.08
2019-02-26T19:27:41.446Z,74.37
2019-02-26T19:30:48.934Z,44.53
2019-02-26T19:33:37.789Z,59.45
2019-02-26T19:36:25.820Z,171.02
2019-02-26T19:39:13.926Z,44.85
2019-02-26T19:42:01.989Z,33.88
2019-02-26T19:44:50.503Z,36.55
2019-02-26T19:47:38.789Z,31.73
2019-02-26T19:50:26.897Z,33.50
2019-02-26T19:53:14.939Z,34.20
2019-02-26T19:56:03.149Z,41.90
2019-02-26T19:58:51.109Z,32.40
2019-02-26T20:01:39.169Z,36.25
2019-02-26T20:04:27.393Z,28.62
2019-02-26T20:07:15.503Z,31.20
2019-02-26T20:10:03.615Z,31.77
2019-02-26T20:12:51.652Z,32.73
2019-02-26T20:15:39.712Z,33.05
2019-02-26T20:18:27.703Z,34.48
2019-02-26T20:24:03.941Z,38.33
2019-02-26T20:26:47.635Z,35.40
2019-02-26T20:29:28.176Z,34.30
2019-02-26T20:32:08.624Z,35.08
2019-02-26T20:34:49.998Z,33.48
2019-02-26T20:37:31.244Z,32.88
2019-02-26T20:40:16.015Z,39.50
2019-02-26T20:42:55.097Z,36.88
2019-02-26T20:45:35.814Z,138.80
2019-02-26T20:48:14.983Z,206.70
2019-02-26T20:51:03.012Z,163.28
2019-02-26T20:53:51.092Z,156.10
2019-02-26T20:56:39.306Z,73.28
2019-02-26T20:59:27.297Z,55.88
2019-02-26T21:02:18.296Z,40.85
2019-02-26T21:05:06.513Z,36.35
2019-02-26T21:07:57.965Z,36.13
2019-02-26T21:10:25.419Z,34.27
2019-02-26T21:13:13.473Z,41.53
2019-02-26T21:16:01.548Z,36.42
2019-02-26T21:18:49.580Z,42.75
2019-02-26T21:21:37.557Z,39.33
2019-02-26T21:24:25.557Z,38.83
2019-02-26T21:29:38.718Z,40.52
2019-02-26T21:32:26.386Z,38.28
2019-02-26T21:35:14.411Z,44.25
2019-02-26T21:41:09.835Z,39.75
2019-02-26T21:43:38.678Z,44.30
2019-02-26T21:46:07.379Z,36.73
2019-02-26T21:48:37.226Z,38.48
2019-02-26T21:51:06.854Z,51.77
2019-02-26T21:53:36.356Z,49.95
2019-02-26T21:56:05.239Z,43.15
2019-02-26T21:58:34.089Z,40.83
2019-02-26T22:01:02.797Z,38.58
2019-02-26T22:03:31.632Z,40.35
2019-02-26T22:06:05.254Z,42.75
2019-02-26T22:08:31.048Z,40.88
2019-02-26T22:10:59.843Z,44.33
2019-02-26T22:13:29.292Z,43.30
2019-02-26T22:15:58.665Z,42.03
2019-02-26T22:18:31.163Z,42.53
2019-02-26T22:20:57.774Z,37.03
2019-02-26T22:23:26.605Z,40.08
2019-02-26T22:25:55.516Z,40.85
2019-02-26T22:28:25.869Z,46.28
2019-02-26T22:30:55.964Z,47.05
2019-02-26T22:33:25.476Z,51.25
2019-02-26T22:35:54.184Z,44.98
2019-02-26T22:38:22.981Z,40.15
2019-02-26T22:40:51.761Z,37.48
2019-02-26T22:43:20.544Z,44.25
2019-02-26T22:45:49.274Z,47.27
2019-02-26T22:48:18.034Z,38.53
2019-02-26T22:50:46.776Z,43.35
2019-02-26T22:53:15.496Z,38.92
2019-02-26T22:55:44.232Z,41.15
2019-02-26T22:58:12.988Z,37.23
2019-02-26T23:01:17.111Z,42.43
2019-02-26T23:03:46.492Z,37.55
2019-02-26T23:06:15.444Z,37.42
2019-02-26T23:08:44.784Z,41.53
2019-02-26T23:11:14.734Z,41.25
2019-02-26T23:13:43.716Z,45.73
2019-02-26T23:16:12.641Z,46.13
2019-02-26T23:18:41.436Z,48.85
2019-02-26T23:21:15.477Z,45.33
2019-02-26T23:23:41.658Z,41.83
2019-02-26T23:26:10.697Z,49.85
2019-02-26T23:28:39.563Z,36.38
2019-02-26T23:31:08.787Z,43.78
2019-02-26T23:33:37.639Z,38.23
2019-02-26T23:36:06.570Z,41.00
2019-02-26T23:38:35.353Z,40.73
2019-02-26T23:41:04.204Z,41.28
2019-02-26T23:43:32.924Z,43.50
2019-02-26T23:46:01.648Z,55.98
2019-02-26T23:48:30.842Z,38.90
2019-02-26T23:50:59.606Z,42.05
2019-02-26T23:53:28.325Z,38.55
2019-02-26T23:55:57.060Z,40.83
2019-02-26T23:58:25.939Z,38.42
